Aeroporto :
LOGIN :

Iscrizione | Disclaimer

   EN    FR    IT 

 










Sommario :    VFR   VFR Marginale   IFR   IFR Intensivo   IFR Molto Intensivo
Visibilità : 
Base nubi : 
>= 8 km
>= 3000ft
5 / 8 km
1000 / 3000 ft
1500m / 5 km
500 / 1000 ft
800 / 1500m
200 / 500 ft
< 800m
< 200 ft
Simboli :   Temporali  Nebbia  Neve Forte  Precipitazioni Forti  Vento > 20 kt
SIGMETs :   Varie  Temporali  Ghiacco  Turbolenza  Onda orograficha  Ceneri Vulcaniche






- Altitudine del aeroporto : 124 ft
- Codice IATA : NHT


EGWU - RAF Northolt

ULTIMO METAR :
  • 280550Z AUTO 15006KT 9999 // OVC120/// 02/M01 Q1012

METARs OBSOLETI :
  • 280450Z AUTO 15003KT 9999 // OVC140/// 01/M01 Q1013
  • 280350Z AUTO 19001KT 9999 // OVC160/// 01/M02 Q1014

TAF TAF EGWU
Valido dal 28 a 06 ore il 29 a 00 ore UTC


280424Z 2806/2824 17010KT 9999 SCT040
BECMG 2807/2810 BKN010
TEMPO 2807/2814 6000 -RA
PROB40
TEMPO 2809/2814 17015G25KT 4000 RADZ SCT006 OVC009
BECMG 2814/2817 22018G28KT
TEMPO 2814/2822 5000 -RADZ BKN006
PROB30
TEMPO 2814/2821 3000 DZ BKN004
BECMG 2822/2824 SCT015



MetMap, La meteo Aeronautica in un colpo d'occhio ! - Copyright ORBIFLY Dicembre 2007 - Disclaimer

ORBIFLY MET'MAP TEAM :

Programmazione e sviluppo : Alexandra Zaïnal
Concezione : Baudouin d'Aumeries
Aiuto per la programmazione : Marc-Olivier Méhu
Supporto tecnico e logistico : Manuel Goepfert
Aiuto per la traduzione : Arnaldo La Scala

Contatto : metmap@orbifly.com




FONTI E CREDITI :

   NOAA